createdAt,value
2024-03-04T00:00:04.626Z,101691.55
2024-03-04T00:02:33.186Z,101690.48
2024-03-04T00:05:01.738Z,101692.76
2024-03-04T00:07:30.727Z,101691.98
2024-03-04T00:09:58.908Z,101692.38
2024-03-04T00:12:27.491Z,101694.13
2024-03-04T00:14:56.256Z,101698.63
2024-03-04T00:17:25.520Z,101694.13
2024-03-04T00:19:54.169Z,101697.38
2024-03-04T00:22:22.511Z,101695.88
2024-03-04T00:24:51.029Z,101693.80
2024-03-04T00:27:19.608Z,101694.66
2024-03-04T00:29:47.991Z,101697.65
2024-03-04T00:32:17.497Z,101695.96
2024-03-04T00:34:45.875Z,101693.56
2024-03-04T00:37:14.092Z,101694.37
2024-03-04T00:39:47.364Z,101693.89
2024-03-04T00:42:16.238Z,101694.45
2024-03-04T00:44:45.121Z,101692.61
2024-03-04T00:47:13.711Z,101692.48
2024-03-04T00:49:42.310Z,101692.55
2024-03-04T00:52:13.760Z,101692.79
2024-03-04T00:54:42.010Z,101689.98
2024-03-04T00:57:11.209Z,101691.55
2024-03-04T00:59:39.698Z,101692.48
2024-03-04T01:02:08.808Z,101691.34
2024-03-04T01:04:37.592Z,101690.35
2024-03-04T01:07:06.602Z,101693.31
2024-03-04T01:09:35.156Z,101694.45
2024-03-04T01:12:03.939Z,101692.08
2024-03-04T01:14:32.334Z,101688.48
2024-03-04T01:17:01.623Z,101688.93
2024-03-04T01:19:30.330Z,101689.40
2024-03-04T01:21:59.362Z,101691.27
2024-03-04T01:24:29.342Z,101688.97
2024-03-04T01:26:58.007Z,101689.30
2024-03-04T01:29:29.859Z,101689.40
2024-03-04T01:31:58.239Z,101693.21
2024-03-04T01:34:26.836Z,101697.75
2024-03-04T01:36:55.665Z,101697.88
2024-03-04T01:39:24.917Z,101697.98
2024-03-04T01:41:53.094Z,101698.02
2024-03-04T01:44:21.890Z,101697.61
2024-03-04T01:46:50.359Z,101699.14
2024-03-04T01:49:22.193Z,101702.46
2024-03-04T01:51:50.926Z,101700.80
2024-03-04T01:54:19.282Z,101699.25
2024-03-04T01:56:48.280Z,101698.96
2024-03-04T01:59:18.816Z,101697.47
2024-03-04T02:01:48.214Z,101699.36
2024-03-04T02:04:17.115Z,101701.25
2024-03-04T02:06:46.299Z,101707.27
2024-03-04T02:09:17.982Z,101708.08
2024-03-04T02:11:46.542Z,101712.89
2024-03-04T02:14:15.029Z,101710.91
2024-03-04T02:16:43.516Z,101712.77
2024-03-04T02:19:15.868Z,101715.67
2024-03-04T02:21:53.265Z,101716.88
2024-03-04T02:24:22.015Z,101717.79
2024-03-04T02:26:54.120Z,101717.84
2024-03-04T02:29:22.510Z,101719.09
2024-03-04T02:31:52.008Z,101719.76
2024-03-04T02:34:20.411Z,101722.51
2024-03-04T02:36:48.982Z,101723.98
2024-03-04T02:39:19.538Z,101731.10
2024-03-04T02:41:48.188Z,101728.44
2024-03-04T02:44:16.801Z,101726.97
2024-03-04T02:46:45.370Z,101725.35
2024-03-04T02:49:14.366Z,101722.74
2024-03-04T02:51:42.721Z,101726.62
2024-03-04T02:54:14.377Z,101724.50
2024-03-04T02:56:43.278Z,101727.07
2024-03-04T02:59:12.103Z,101731.45
2024-03-04T03:01:41.876Z,101732.30
2024-03-04T03:04:10.307Z,101726.45
2024-03-04T03:06:38.721Z,101726.95
2024-03-04T03:09:07.832Z,101732.09
2024-03-04T03:11:36.616Z,101731.58
2024-03-04T03:14:05.197Z,101730.17
2024-03-04T03:16:33.686Z,101728.13
2024-03-04T03:19:02.497Z,101730.64
2024-03-04T03:21:31.155Z,101728.30
2024-03-04T03:23:59.638Z,101729.87
2024-03-04T03:26:28.111Z,101733.98
2024-03-04T03:28:58.155Z,101734.92
2024-03-04T03:31:28.240Z,101735.69
2024-03-04T03:33:56.756Z,101741.98
2024-03-04T03:36:25.619Z,101738.66
2024-03-04T03:38:54.200Z,101736.81
2024-03-04T03:41:22.992Z,101734.20
2024-03-04T03:43:51.379Z,101736.93
2024-03-04T03:46:19.776Z,101735.69
2024-03-04T03:48:48.742Z,101734.76
2024-03-04T03:51:17.232Z,101734.83
2024-03-04T03:53:45.617Z,101730.66
2024-03-04T03:56:14.087Z,101730.29
2024-03-04T03:58:42.648Z,101729.02
2024-03-04T04:01:11.927Z,101727.27
2024-03-04T04:03:40.749Z,101731.98
2024-03-04T04:06:09.131Z,101735.81
2024-03-04T04:08:37.264Z,101736.02
2024-03-04T04:11:05.484Z,101739.67
2024-03-04T04:13:33.794Z,101738.11
2024-03-04T04:16:02.409Z,101741.69
2024-03-04T04:18:31.230Z,101743.67
2024-03-04T04:20:59.831Z,101746.52
2024-03-04T04:23:28.302Z,101750.50
2024-03-04T04:25:56.678Z,101752.47
2024-03-04T04:28:26.721Z,101753.91
2024-03-04T04:30:55.280Z,101757.98
2024-03-04T04:33:24.316Z,101763.55
2024-03-04T04:35:52.772Z,101762.62
2024-03-04T04:38:21.351Z,101756.73
2024-03-04T04:40:51.464Z,101758.02
2024-03-04T04:43:22.205Z,101762.71
2024-03-04T04:45:50.728Z,101767.87
2024-03-04T04:48:19.794Z,101768.70
2024-03-04T04:50:48.354Z,101767.67
2024-03-04T04:53:17.045Z,101762.58
2024-03-04T04:55:45.425Z,101763.13
2024-03-04T04:58:15.560Z,101767.61
2024-03-04T05:00:43.818Z,101770.73
2024-03-04T05:03:16.205Z,101778.13
2024-03-04T05:05:50.983Z,101781.45
2024-03-04T05:08:19.716Z,101786.17
2024-03-04T05:10:48.100Z,101784.83
2024-03-04T05:13:16.990Z,101778.20
2024-03-04T05:15:45.553Z,101777.83
2024-03-04T05:18:14.737Z,101778.38
2024-03-04T05:20:53.918Z,101778.90
2024-03-04T05:23:24.824Z,101782.96
2024-03-04T05:25:53.461Z,101782.20
2024-03-04T05:28:21.938Z,101780.74
2024-03-04T05:30:50.367Z,101785.75
2024-03-04T05:33:18.574Z,101787.88
2024-03-04T05:35:47.510Z,101792.23
2024-03-04T05:38:15.802Z,101792.84
2024-03-04T05:40:45.150Z,101798.64
2024-03-04T05:43:14.079Z,101799.69
2024-03-04T05:45:42.522Z,101798.89
2024-03-04T05:48:11.088Z,101799.73
2024-03-04T05:50:39.655Z,101801.21
2024-03-04T05:53:07.928Z,101798.92
2024-03-04T05:55:36.800Z,101793.64
2024-03-04T05:58:05.449Z,101794.73
2024-03-04T06:00:35.085Z,101798.92
2024-03-04T06:03:03.901Z,101802.99
2024-03-04T06:05:32.383Z,101806.02
2024-03-04T06:08:02.607Z,101806.77
2024-03-04T06:10:31.229Z,101809.50
2024-03-04T06:13:00.131Z,101808.98
2024-03-04T06:15:28.869Z,101804.89
2024-03-04T06:17:57.277Z,101807.39
2024-03-04T06:20:25.744Z,101807.44
2024-03-04T06:22:54.218Z,101805.21
2024-03-04T06:25:22.933Z,101800.20
2024-03-04T06:27:52.004Z,101801.38
2024-03-04T06:30:21.213Z,101801.20
2024-03-04T06:32:49.497Z,101806.14
2024-03-04T06:35:18.763Z,101806.59
2024-03-04T06:37:47.390Z,101801.30
2024-03-04T06:40:16.399Z,101805.05
2024-03-04T06:42:44.925Z,101808.53
2024-03-04T06:45:13.523Z,101808.27
2024-03-04T06:47:41.750Z,101807.73
2024-03-04T06:50:10.466Z,101804.42
2024-03-04T06:52:38.999Z,101808.88
2024-03-04T06:55:07.890Z,101813.48
2024-03-04T06:57:36.334Z,101814.75
2024-03-04T07:00:06.473Z,101815.66
2024-03-04T07:02:35.265Z,101809.58
2024-03-04T07:05:04.025Z,101810.52
2024-03-04T07:07:32.325Z,101812.02
2024-03-04T07:10:04.016Z,101815.55
2024-03-04T07:12:32.714Z,101813.32
2024-03-04T07:15:01.362Z,101814.90
2024-03-04T07:17:29.550Z,101813.84
2024-03-04T07:19:57.901Z,101813.83
2024-03-04T07:22:26.507Z,101813.99
2024-03-04T07:24:55.875Z,101817.30
2024-03-04T07:27:24.773Z,101816.45
2024-03-04T07:29:59.122Z,101816.59
2024-03-04T07:32:31.405Z,101816.08
2024-03-04T07:34:59.933Z,101814.34
2024-03-04T07:37:28.973Z,101816.44
2024-03-04T07:39:57.223Z,101822.36
2024-03-04T07:42:27.017Z,101826.46
2024-03-04T07:44:55.406Z,101820.44
2024-03-04T07:47:23.953Z,101822.50
2024-03-04T07:49:53.404Z,101823.67
2024-03-04T07:52:21.882Z,101825.65
2024-03-04T07:54:50.333Z,101825.17
2024-03-04T07:57:23.561Z,101827.16
2024-03-04T07:59:52.994Z,101821.63
2024-03-04T08:02:21.628Z,101825.11
2024-03-04T08:04:49.996Z,101824.55
2024-03-04T08:07:18.553Z,101823.01
2024-03-04T08:09:46.980Z,101820.92
2024-03-04T08:12:16.465Z,101819.51
2024-03-04T08:14:45.067Z,101821.77
2024-03-04T08:17:13.430Z,101816.73
2024-03-04T08:19:42.245Z,101816.38
2024-03-04T08:22:10.808Z,101817.02
2024-03-04T08:24:45.487Z,101819.36
2024-03-04T08:27:14.108Z,101822.44
2024-03-04T08:29:42.800Z,101820.68
2024-03-04T08:32:11.179Z,101824.52
2024-03-04T08:34:40.118Z,101828.58
2024-03-04T08:37:08.883Z,101827.41
2024-03-04T08:39:37.240Z,101828.69
2024-03-04T08:42:06.921Z,101828.55
2024-03-04T08:44:35.242Z,101828.86
2024-03-04T08:47:03.795Z,101831.70
2024-03-04T08:49:32.137Z,101831.18
2024-03-04T08:52:02.629Z,101829.23
2024-03-04T08:54:32.892Z,101829.27
2024-03-04T08:57:01.413Z,101827.55
2024-03-04T08:59:29.811Z,101831.40
2024-03-04T09:01:58.103Z,101830.02
2024-03-04T09:04:26.673Z,101835.39
2024-03-04T09:06:56.570Z,101841.29
2024-03-04T09:09:24.806Z,101842.78
2024-03-04T09:11:54.048Z,101844.21
2024-03-04T09:14:22.340Z,101847.59
2024-03-04T09:16:51.484Z,101847.27
2024-03-04T09:19:19.725Z,101844.83
2024-03-04T09:21:48.990Z,101845.77
2024-03-04T09:24:17.581Z,101843.67
2024-03-04T09:26:48.931Z,101839.13
2024-03-04T09:29:17.815Z,101836.02
2024-03-04T09:31:46.201Z,101833.92
2024-03-04T09:34:14.906Z,101832.01
2024-03-04T09:36:43.268Z,101830.27
2024-03-04T09:39:14.741Z,101827.13
2024-03-04T09:41:43.808Z,101819.63
2024-03-04T09:44:12.696Z,101818.77
2024-03-04T09:46:42.430Z,101819.81
2024-03-04T09:49:12.822Z,101819.63
2024-03-04T09:51:42.227Z,101822.23
2024-03-04T09:54:15.916Z,101820.34
2024-03-04T09:56:44.677Z,101823.30
2024-03-04T09:59:13.530Z,101821.21
2024-03-04T10:01:42.343Z,101813.51
2024-03-04T10:04:11.036Z,101807.36
2024-03-04T10:06:40.425Z,101801.56
2024-03-04T10:09:14.083Z,101800.44
2024-03-04T10:11:44.203Z,101797.30
2024-03-04T10:14:12.704Z,101795.38
2024-03-04T10:16:41.620Z,101792.87
2024-03-04T10:19:09.805Z,101800.41
2024-03-04T10:21:38.348Z,101794.55
2024-03-04T10:24:11.411Z,101792.87
2024-03-04T10:26:42.102Z,101787.48
2024-03-04T10:29:11.075Z,101787.08
2024-03-04T10:31:49.746Z,101782.47
2024-03-04T10:34:18.484Z,101780.90
2024-03-04T10:36:49.029Z,101773.38
2024-03-04T10:39:17.738Z,101770.44
2024-03-04T10:41:48.922Z,101770.53
2024-03-04T10:44:29.907Z,101768.73
2024-03-04T10:47:03.939Z,101766.33
2024-03-04T10:49:33.378Z,101771.95
2024-03-04T10:54:35.603Z,101762.62
2024-03-04T10:57:08.728Z,101754.52
2024-03-04T10:59:38.683Z,101749.98
2024-03-04T11:02:21.635Z,101745.30
2024-03-04T11:04:56.422Z,101743.54
2024-03-04T11:07:29.626Z,101746.23
2024-03-04T11:10:02.109Z,101737.73
2024-03-04T11:12:34.249Z,101741.04
2024-03-04T11:15:10.190Z,101734.70
2024-03-04T11:17:47.450Z,101731.80
2024-03-04T11:20:20.212Z,101723.64
2024-03-04T11:22:49.054Z,101719.56
2024-03-04T11:25:18.881Z,101720.00
2024-03-04T11:27:48.633Z,101713.22
2024-03-04T11:30:19.023Z,101716.64
2024-03-04T11:32:47.512Z,101717.63
2024-03-04T11:35:28.457Z,101714.24
2024-03-04T11:38:14.509Z,101710.84
2024-03-04T11:40:46.957Z,101706.66
2024-03-04T11:43:44.997Z,101702.33
2024-03-04T11:46:15.527Z,101704.31
2024-03-04T11:48:44.079Z,101705.40
2024-03-04T11:51:12.487Z,101707.96
2024-03-04T11:53:45.044Z,101706.27
2024-03-04T11:56:15.216Z,101705.48
2024-03-04T11:58:43.689Z,101706.40
2024-03-04T12:01:19.086Z,101705.52
2024-03-04T12:03:54.917Z,101705.30
2024-03-04T12:06:23.802Z,101708.55
2024-03-04T12:09:09.331Z,101704.39
2024-03-04T12:11:41.147Z,101700.17
2024-03-04T12:14:09.647Z,101694.40
2024-03-04T12:16:40.322Z,101688.40
2024-03-04T12:19:08.974Z,101680.27
2024-03-04T12:21:38.972Z,101679.69
2024-03-04T12:24:10.655Z,101686.28
2024-03-04T12:26:39.017Z,101691.11
2024-03-04T12:29:08.558Z,101686.15
2024-03-04T12:31:39.175Z,101684.54
2024-03-04T12:34:08.861Z,101679.23
2024-03-04T12:36:45.139Z,101674.36
2024-03-04T12:39:13.803Z,101667.14
2024-03-04T12:41:42.201Z,101670.42
2024-03-04T12:44:10.556Z,101672.67
2024-03-04T12:46:40.045Z,101673.73
2024-03-04T12:49:09.044Z,101670.89
2024-03-04T12:51:38.074Z,101670.79
2024-03-04T12:54:06.422Z,101668.20
2024-03-04T12:56:34.706Z,101666.23
2024-03-04T12:59:03.221Z,101665.00
2024-03-04T13:01:32.114Z,101666.05
2024-03-04T13:04:05.194Z,101663.14
2024-03-04T13:06:33.676Z,101658.09
2024-03-04T13:09:02.382Z,101656.67
2024-03-04T13:11:30.950Z,101651.14
2024-03-04T13:13:59.504Z,101650.47
2024-03-04T13:16:28.460Z,101645.55
2024-03-04T13:18:56.767Z,101645.54
2024-03-04T13:21:25.276Z,101647.64
2024-03-04T13:23:53.747Z,101647.46
2024-03-04T13:26:22.342Z,101650.77
2024-03-04T13:28:50.837Z,101656.46
2024-03-04T13:31:19.295Z,101656.33
2024-03-04T13:33:48.374Z,101656.98
2024-03-04T13:36:16.750Z,101652.46
2024-03-04T13:38:45.247Z,101649.20
2024-03-04T13:41:13.362Z,101650.30
2024-03-04T13:43:41.726Z,101651.09
2024-03-04T13:46:10.632Z,101653.23
2024-03-04T13:48:39.172Z,101650.98
2024-03-04T13:51:07.558Z,101646.95
2024-03-04T13:53:38.185Z,101643.82
2024-03-04T13:56:08.536Z,101644.67
2024-03-04T13:58:36.802Z,101639.95
2024-03-04T14:01:05.217Z,101641.82
2024-03-04T14:03:36.280Z,101641.17
2024-03-04T14:06:06.336Z,101643.70
2024-03-04T14:08:34.694Z,101643.77
2024-03-04T14:11:05.564Z,101640.16
2024-03-04T14:13:34.219Z,101642.60
2024-03-04T14:16:02.520Z,101640.45
2024-03-04T14:18:31.693Z,101632.77
2024-03-04T14:21:00.295Z,101632.17
2024-03-04T14:23:32.976Z,101629.23
2024-03-04T14:26:04.921Z,101627.29
2024-03-04T14:28:33.649Z,101628.05
2024-03-04T14:31:01.885Z,101630.06
2024-03-04T14:33:30.445Z,101632.26
2024-03-04T14:35:58.860Z,101633.06
2024-03-04T14:38:27.426Z,101633.45
2024-03-04T14:40:58.695Z,101625.80
2024-03-04T14:43:27.600Z,101626.27
2024-03-04T14:45:55.945Z,101627.84
2024-03-04T14:48:24.337Z,101631.09
2024-03-04T14:50:52.899Z,101630.33
2024-03-04T14:53:21.490Z,101630.41
2024-03-04T14:55:49.960Z,101625.52
2024-03-04T14:58:18.570Z,101621.17
2024-03-04T15:00:46.999Z,101624.00
2024-03-04T15:03:15.311Z,101618.74
2024-03-04T15:05:44.516Z,101619.45
2024-03-04T15:08:12.895Z,101620.15
2024-03-04T15:10:41.589Z,101620.55
2024-03-04T15:13:09.992Z,101618.52
2024-03-04T15:15:38.312Z,101619.07
2024-03-04T15:18:15.490Z,101617.52
2024-03-04T15:20:54.608Z,101615.06
2024-03-04T15:23:23.334Z,101617.62
2024-03-04T15:25:51.895Z,101618.96
2024-03-04T15:28:20.331Z,101617.53
2024-03-04T15:30:48.796Z,101624.77
2024-03-04T15:33:18.588Z,101626.61
2024-03-04T15:35:48.244Z,101627.36
2024-03-04T15:38:18.020Z,101625.21
2024-03-04T15:40:46.426Z,101625.84
2024-03-04T15:43:17.347Z,101630.02
2024-03-04T15:45:46.446Z,101630.35
2024-03-04T15:48:14.905Z,101630.02
2024-03-04T15:50:43.308Z,101625.60
2024-03-04T15:53:11.688Z,101627.76
2024-03-04T15:55:40.322Z,101624.50
2024-03-04T15:58:10.903Z,101621.04
2024-03-04T16:00:40.373Z,101618.05
2024-03-04T16:03:08.755Z,101613.27
2024-03-04T16:05:37.246Z,101613.29
2024-03-04T16:08:06.029Z,101615.42
2024-03-04T16:10:34.466Z,101617.55
2024-03-04T16:13:03.145Z,101618.58
2024-03-04T16:15:40.969Z,101620.52
2024-03-04T16:18:17.068Z,101622.81
2024-03-04T16:20:45.642Z,101622.03
2024-03-04T16:23:14.346Z,101625.46
2024-03-04T16:25:42.808Z,101625.92
2024-03-04T16:28:11.570Z,101627.56
2024-03-04T16:30:40.113Z,101621.94
2024-03-04T16:33:08.415Z,101619.95
2024-03-04T16:35:37.046Z,101622.28
2024-03-04T16:38:05.630Z,101622.91
2024-03-04T16:40:34.653Z,101623.86
2024-03-04T16:43:05.994Z,101622.40
2024-03-04T16:45:34.553Z,101622.12
2024-03-04T16:48:03.809Z,101625.33
2024-03-04T16:50:32.158Z,101626.13
2024-03-04T16:53:00.709Z,101626.64
2024-03-04T16:55:31.734Z,101629.90
2024-03-04T16:58:04.659Z,101626.93
2024-03-04T17:00:33.541Z,101628.59
2024-03-04T17:03:05.593Z,101632.85
2024-03-04T17:05:34.884Z,101629.52
2024-03-04T17:08:07.072Z,101629.73
2024-03-04T17:10:35.314Z,101631.25
2024-03-04T17:13:04.570Z,101629.14
2024-03-04T17:15:33.421Z,101624.55
2024-03-04T17:18:03.462Z,101622.26
2024-03-04T17:20:33.074Z,101621.39
2024-03-04T17:23:01.884Z,101622.98
2024-03-04T17:25:30.350Z,101624.36
2024-03-04T17:27:59.105Z,101619.80
2024-03-04T17:30:27.485Z,101615.59
2024-03-04T17:32:56.170Z,101613.27
2024-03-04T17:35:25.065Z,101605.92
2024-03-04T17:37:53.576Z,101602.45
2024-03-04T17:40:22.274Z,101600.41
2024-03-04T17:42:50.720Z,101600.40
2024-03-04T17:45:19.195Z,101602.98
2024-03-04T17:47:47.780Z,101606.60
2024-03-04T17:50:16.566Z,101607.86
2024-03-04T17:52:44.962Z,101614.40
2024-03-04T17:55:14.084Z,101614.63
2024-03-04T17:57:43.755Z,101613.81
2024-03-04T18:00:12.628Z,101610.54
2024-03-04T18:02:41.121Z,101609.46
2024-03-04T18:05:09.950Z,101608.05
2024-03-04T18:07:40.066Z,101609.23
2024-03-04T18:10:10.199Z,101606.14
2024-03-04T18:12:38.935Z,101603.73
2024-03-04T18:15:08.246Z,101602.13
2024-03-04T18:17:36.973Z,101599.80
2024-03-04T18:20:07.848Z,101600.59
2024-03-04T18:22:36.489Z,101602.94
2024-03-04T18:25:06.937Z,101605.30
2024-03-04T18:27:35.455Z,101609.39
2024-03-04T18:30:04.657Z,101604.95
2024-03-04T18:32:33.775Z,101600.33
2024-03-04T18:35:02.265Z,101600.71
2024-03-04T18:37:30.718Z,101600.55
2024-03-04T18:39:59.197Z,101597.63
2024-03-04T18:42:27.701Z,101598.38
2024-03-04T18:44:56.072Z,101598.77
2024-03-04T18:47:25.587Z,101599.00
2024-03-04T18:49:54.328Z,101600.03
2024-03-04T18:52:23.647Z,101596.02
2024-03-04T18:54:52.697Z,101592.20
2024-03-04T18:57:21.223Z,101590.85
2024-03-04T18:59:49.706Z,101592.41
2024-03-04T19:02:18.436Z,101590.85
2024-03-04T19:04:47.013Z,101594.70
2024-03-04T19:07:15.894Z,101593.34
2024-03-04T19:09:44.459Z,101596.98
2024-03-04T19:12:12.856Z,101595.96
2024-03-04T19:14:42.679Z,101598.80
2024-03-04T19:17:11.432Z,101599.91
2024-03-04T19:19:39.838Z,101602.94
2024-03-04T19:22:08.850Z,101605.23
2024-03-04T19:24:39.561Z,101609.36
2024-03-04T19:27:08.010Z,101609.71
2024-03-04T19:29:36.513Z,101606.27
2024-03-04T19:32:05.305Z,101609.45
2024-03-04T19:34:34.461Z,101604.98
2024-03-04T19:37:03.568Z,101603.59
2024-03-04T19:39:32.173Z,101608.27
2024-03-04T19:42:03.269Z,101612.11
2024-03-04T19:44:32.309Z,101613.34
2024-03-04T19:47:01.500Z,101614.42
2024-03-04T19:49:29.989Z,101611.16
2024-03-04T19:51:58.464Z,101609.59
2024-03-04T19:54:26.879Z,101611.11
2024-03-04T19:56:56.155Z,101609.06
2024-03-04T19:59:24.635Z,101610.13
2024-03-04T20:01:53.234Z,101610.65
2024-03-04T20:04:21.859Z,101608.38
2024-03-04T20:06:50.504Z,101603.30
2024-03-04T20:09:18.952Z,101603.30
2024-03-04T20:11:47.378Z,101602.31
2024-03-04T20:14:15.762Z,101602.16
2024-03-04T20:16:46.424Z,101601.12
2024-03-04T20:19:14.865Z,101604.23
2024-03-04T20:21:43.302Z,101602.14
2024-03-04T20:24:11.480Z,101598.00
2024-03-04T20:26:39.877Z,101599.08
2024-03-04T20:29:08.460Z,101597.50
2024-03-04T20:31:37.801Z,101594.89
2024-03-04T20:34:07.148Z,101591.73
2024-03-04T20:36:35.517Z,101586.16
2024-03-04T20:39:04.120Z,101580.99
2024-03-04T20:41:32.387Z,101576.69
2024-03-04T20:44:03.133Z,101576.52
2024-03-04T20:46:31.629Z,101576.65
2024-03-04T20:49:00.197Z,101572.98
2024-03-04T20:51:31.121Z,101572.64
2024-03-04T20:53:59.699Z,101573.67
2024-03-04T20:56:28.080Z,101572.07
2024-03-04T20:58:56.392Z,101569.45
2024-03-04T21:01:25.104Z,101569.95
2024-03-04T21:03:53.752Z,101569.80
2024-03-04T21:06:22.213Z,101566.01
2024-03-04T21:08:50.593Z,101567.73
2024-03-04T21:11:19.543Z,101566.34
2024-03-04T21:13:48.249Z,101564.08
2024-03-04T21:16:16.705Z,101562.34
2024-03-04T21:18:45.447Z,101560.77
2024-03-04T21:21:13.842Z,101553.45
2024-03-04T21:23:42.403Z,101550.67
2024-03-04T21:26:10.762Z,101546.70
2024-03-04T21:28:41.047Z,101550.19
2024-03-04T21:31:11.024Z,101548.77
2024-03-04T21:33:39.602Z,101547.53
2024-03-04T21:36:08.221Z,101546.83
2024-03-04T21:38:36.581Z,101540.63
2024-03-04T21:41:05.181Z,101538.90
2024-03-04T21:43:33.566Z,101539.59
2024-03-04T21:46:04.473Z,101536.46
2024-03-04T21:48:37.658Z,101532.50
2024-03-04T21:51:06.974Z,101527.48
2024-03-04T21:53:35.346Z,101523.64
2024-03-04T21:56:08.133Z,101523.30
2024-03-04T21:58:36.696Z,101519.65
2024-03-04T22:01:05.368Z,101517.58
2024-03-04T22:03:34.299Z,101521.91
2024-03-04T22:06:03.548Z,101521.02
2024-03-04T22:08:34.067Z,101520.14
2024-03-04T22:13:30.605Z,101518.06
2024-03-04T22:15:58.938Z,101512.52
2024-03-04T22:18:27.330Z,101506.77
2024-03-04T22:20:55.700Z,101504.84
2024-03-04T22:23:24.047Z,101501.40
2024-03-04T22:25:52.654Z,101500.73
2024-03-04T22:28:21.165Z,101499.52
2024-03-04T22:30:52.816Z,101502.82
2024-03-04T22:33:21.283Z,101501.64
2024-03-04T22:35:49.764Z,101499.95
2024-03-04T22:38:21.221Z,101494.92
2024-03-04T22:40:51.284Z,101496.82
2024-03-04T22:43:20.494Z,101494.05
2024-03-04T22:45:48.910Z,101494.61
2024-03-04T22:48:17.293Z,101493.23
2024-03-04T22:50:45.668Z,101493.40
2024-03-04T22:53:14.558Z,101494.27
2024-03-04T22:55:43.305Z,101494.98
2024-03-04T22:58:11.867Z,101493.95
2024-03-04T23:00:40.221Z,101487.55
2024-03-04T23:03:12.187Z,101484.95
2024-03-04T23:05:41.367Z,101482.68
2024-03-04T23:08:09.977Z,101480.59
2024-03-04T23:10:38.795Z,101483.55
2024-03-04T23:13:08.034Z,101477.66
2024-03-04T23:15:40.110Z,101473.48
2024-03-04T23:18:11.251Z,101472.61
2024-03-04T23:20:39.726Z,101469.31
2024-03-04T23:23:08.423Z,101470.01
2024-03-04T23:25:36.823Z,101470.54
2024-03-04T23:28:06.411Z,101473.30
2024-03-04T23:30:36.420Z,101469.66
2024-03-04T23:33:06.667Z,101467.41
2024-03-04T23:35:35.115Z,101466.56
2024-03-04T23:38:04.205Z,101467.98
2024-03-04T23:40:32.958Z,101467.45
2024-03-04T23:43:01.385Z,101465.35
2024-03-04T23:45:29.586Z,101462.38
2024-03-04T23:47:58.168Z,101459.42
2024-03-04T23:50:27.031Z,101458.27
2024-03-04T23:52:55.267Z,101455.50
2024-03-04T23:55:23.827Z,101452.38
2024-03-04T23:57:52.907Z,101449.42
